createdAt,value
2015-08-21T00:00:01.610Z,0.76
2015-08-21T00:00:14.018Z,0.72
2015-08-21T00:00:26.440Z,0.71
2015-08-21T00:00:38.674Z,0.81
2015-08-21T00:00:51.065Z,0.71
2015-08-21T00:01:03.471Z,0.78
2015-08-21T00:01:15.879Z,0.71
2015-08-21T00:01:28.286Z,0.75
2015-08-21T00:01:40.692Z,0.78
2015-08-21T00:01:53.082Z,0.74
2015-08-21T00:02:05.489Z,0.75
2015-08-21T00:02:17.194Z,0.79
2015-08-21T00:02:29.553Z,0.69
2015-08-21T00:02:41.772Z,0.75
2015-08-21T00:02:54.147Z,0.72
2015-08-21T00:03:06.522Z,0.64
2015-08-21T00:03:18.899Z,0.75
2015-08-21T00:03:31.274Z,0.75
2015-08-21T00:03:43.649Z,0.79
2015-08-21T00:03:56.024Z,0.78
2015-08-21T00:04:08.383Z,0.76
2015-08-21T00:04:20.745Z,0.78
2015-08-21T00:04:33.104Z,0.82
2015-08-21T00:04:45.479Z,0.75
2015-08-21T00:04:57.838Z,0.74
2015-08-21T00:05:10.229Z,0.74
2015-08-21T00:05:22.637Z,0.74
2015-08-21T00:05:35.012Z,0.84
2015-08-21T00:05:47.372Z,0.79
2015-08-21T00:05:59.762Z,0.76
2015-08-21T00:06:12.122Z,0.74
2015-08-21T00:06:24.499Z,0.76
2015-08-21T00:06:36.874Z,0.78
2015-08-21T00:06:49.264Z,0.72
2015-08-21T00:07:01.639Z,0.75
2015-08-21T00:07:13.999Z,0.76
2015-08-21T00:07:26.376Z,0.84
2015-08-21T00:07:38.751Z,0.74
2015-08-21T00:07:50.423Z,0.76
2015-08-21T00:08:02.798Z,0.74
2015-08-21T00:08:15.188Z,0.72
2015-08-21T00:08:27.581Z,0.72
2015-08-21T00:08:40.003Z,0.76
2015-08-21T00:08:52.393Z,0.79
2015-08-21T00:09:04.768Z,0.75
2015-08-21T00:09:17.159Z,0.78
2015-08-21T00:09:29.566Z,0.75
2015-08-21T00:09:41.988Z,0.78
2015-08-21T00:09:54.379Z,0.75
2015-08-21T00:10:06.769Z,0.74
2015-08-21T00:10:19.176Z,0.76
2015-08-21T00:10:31.568Z,0.75
2015-08-21T00:10:43.974Z,0.72
2015-08-21T00:10:56.381Z,0.75
2015-08-21T00:11:08.803Z,0.76
2015-08-21T00:11:21.193Z,0.84
2015-08-21T00:11:33.618Z,0.75
2015-08-21T00:11:45.993Z,0.78
2015-08-21T00:11:58.368Z,0.84
2015-08-21T00:12:10.743Z,0.81
2015-08-21T00:12:23.102Z,0.76
2015-08-21T00:12:35.495Z,0.86
2015-08-21T00:12:47.870Z,0.84
2015-08-21T00:13:00.245Z,0.82
2015-08-21T00:13:12.620Z,0.84
2015-08-21T00:13:24.995Z,0.81
2015-08-21T00:13:37.372Z,0.75
2015-08-21T00:13:49.747Z,0.85
2015-08-21T00:14:01.981Z,0.78
2015-08-21T00:14:14.356Z,0.81
2015-08-21T00:14:26.731Z,0.85
2015-08-21T00:14:39.108Z,0.85
2015-08-21T00:14:51.483Z,0.81
2015-08-21T00:15:03.858Z,0.89
2015-08-21T00:15:16.218Z,0.85
2015-08-21T00:15:28.608Z,0.84
2015-08-21T00:15:40.985Z,0.81
2015-08-21T00:15:53.360Z,0.85
2015-08-21T00:16:05.751Z,0.81
2015-08-21T00:16:18.126Z,0.84
2015-08-21T00:16:30.360Z,0.85
2015-08-21T00:16:42.737Z,0.86
2015-08-21T00:16:55.112Z,0.84
2015-08-21T00:17:07.487Z,0.84
2015-08-21T00:17:19.862Z,0.82
2015-08-21T00:17:32.237Z,0.92
2015-08-21T00:17:44.474Z,0.86
2015-08-21T00:17:56.880Z,0.85
2015-08-21T00:18:09.271Z,0.89
2015-08-21T00:18:21.661Z,0.81
2015-08-21T00:18:34.036Z,0.81
2015-08-21T00:18:46.429Z,0.81
2015-08-21T00:18:58.835Z,0.86
2015-08-21T00:19:11.257Z,0.85
2015-08-21T00:19:23.663Z,0.85
2015-08-21T00:19:36.054Z,0.81
2015-08-21T00:19:48.461Z,0.84
2015-08-21T00:20:00.852Z,0.86
2015-08-21T00:20:13.258Z,0.84
2015-08-21T00:20:25.680Z,0.84
2015-08-21T00:20:38.071Z,0.84
2015-08-21T00:20:50.480Z,0.89
2015-08-21T00:21:02.902Z,0.81
2015-08-21T00:21:15.277Z,0.86
2015-08-21T00:21:27.652Z,0.81
2015-08-21T00:21:40.027Z,0.96
2015-08-21T00:21:52.404Z,0.81
2015-08-21T00:22:04.779Z,0.81
2015-08-21T00:22:17.154Z,0.85
2015-08-21T00:22:29.513Z,0.86
2015-08-21T00:22:41.904Z,0.85
2015-08-21T00:22:54.295Z,0.89
2015-08-21T00:23:06.655Z,0.81
2015-08-21T00:23:19.030Z,0.85
2015-08-21T00:23:31.420Z,0.76
2015-08-21T00:23:43.780Z,0.85
2015-08-21T00:23:56.157Z,0.89
2015-08-21T00:24:08.532Z,0.9
2015-08-21T00:24:20.938Z,0.86
2015-08-21T00:24:33.313Z,0.79
2015-08-21T00:24:45.688Z,0.85
2015-08-21T00:24:58.066Z,0.79
2015-08-21T00:25:10.441Z,0.81
2015-08-21T00:25:22.816Z,0.78
2015-08-21T00:25:35.191Z,0.81
2015-08-21T00:25:47.566Z,0.86
2015-08-21T00:25:59.943Z,0.79
2015-08-21T00:26:12.318Z,0.89
2015-08-21T00:26:24.693Z,0.85
2015-08-21T00:26:37.068Z,0.9
2015-08-21T00:26:49.443Z,0.9
2015-08-21T00:27:01.820Z,0.85
2015-08-21T00:27:14.211Z,0.94
2015-08-21T00:27:26.601Z,0.92
2015-08-21T00:27:38.992Z,0.82
2015-08-21T00:27:51.367Z,0.9
2015-08-21T00:28:03.758Z,0.81
2015-08-21T00:28:16.149Z,0.89
2015-08-21T00:28:28.555Z,0.79
2015-08-21T00:28:40.962Z,0.76
2015-08-21T00:28:53.368Z,0.84
2015-08-21T00:29:05.777Z,0.86
2015-08-21T00:29:18.168Z,0.85
2015-08-21T00:29:30.574Z,0.81
2015-08-21T00:29:42.980Z,0.86
2015-08-21T00:29:55.402Z,0.82
2015-08-21T00:30:07.794Z,0.84
2015-08-21T00:30:20.044Z,0.81
2015-08-21T00:30:32.153Z,0.81
2015-08-21T00:30:44.200Z,0.86
2015-08-21T00:30:56.450Z,0.86
2015-08-21T00:31:08.358Z,0.82
2015-08-21T00:31:20.577Z,0.76
2015-08-21T00:31:32.483Z,0.81
2015-08-21T00:31:44.702Z,0.9
2015-08-21T00:31:56.764Z,0.85
2015-08-21T00:32:08.986Z,0.82
2015-08-21T00:32:21.205Z,0.86
2015-08-21T00:32:33.589Z,0.86
2015-08-21T00:32:45.370Z,0.81
2015-08-21T00:32:57.729Z,0.85
2015-08-21T00:33:10.122Z,0.81
2015-08-21T00:33:22.481Z,0.79
2015-08-21T00:33:34.872Z,0.82
2015-08-21T00:33:47.247Z,0.86
2015-08-21T00:33:59.638Z,0.84
2015-08-21T00:34:12.014Z,0.89
2015-08-21T00:34:24.389Z,0.89
2015-08-21T00:34:36.764Z,0.86
2015-08-21T00:34:49.139Z,0.86
2015-08-21T00:35:01.529Z,0.85
2015-08-21T00:35:13.906Z,0.93
2015-08-21T00:35:26.281Z,0.81
2015-08-21T00:35:38.656Z,0.93
2015-08-21T00:35:51.031Z,0.86
2015-08-21T00:36:03.406Z,0.75
2015-08-21T00:36:15.783Z,0.85
2015-08-21T00:36:28.174Z,0.89
2015-08-21T00:36:40.549Z,0.86
2015-08-21T00:36:52.939Z,0.81
2015-08-21T00:37:05.314Z,0.93
2015-08-21T00:37:17.691Z,0.84
2015-08-21T00:37:30.082Z,0.89
2015-08-21T00:37:42.488Z,0.86
2015-08-21T00:37:54.754Z,0.81
2015-08-21T00:38:06.441Z,0.82
2015-08-21T00:38:18.834Z,0.81
2015-08-21T00:38:31.240Z,0.81
2015-08-21T00:38:43.647Z,0.82
2015-08-21T00:38:56.037Z,0.75
2015-08-21T00:39:08.459Z,0.79
2015-08-21T00:39:20.164Z,0.86
2015-08-21T00:39:32.555Z,0.81
2015-08-21T00:39:44.961Z,0.84
2015-08-21T00:39:57.320Z,0.86
2015-08-21T00:40:09.711Z,0.84
2015-08-21T00:40:22.089Z,0.85
2015-08-21T00:40:34.464Z,0.84
2015-08-21T00:40:46.839Z,0.84
2015-08-21T00:40:59.214Z,0.85
2015-08-21T00:41:11.573Z,0.81
2015-08-21T00:41:23.965Z,0.79
2015-08-21T00:41:36.340Z,0.79
2015-08-21T00:41:48.731Z,0.85
2015-08-21T00:42:01.106Z,0.79
2015-08-21T00:42:13.481Z,0.79
2015-08-21T00:42:25.858Z,0.86
2015-08-21T00:42:38.233Z,0.81
2015-08-21T00:42:50.623Z,0.85
2015-08-21T00:43:02.280Z,0.84
2015-08-21T00:43:14.655Z,0.82
2015-08-21T00:43:27.032Z,0.9
2015-08-21T00:43:39.407Z,0.84
2015-08-21T00:43:51.782Z,0.82
2015-08-21T00:44:03.438Z,0.78
2015-08-21T00:44:15.813Z,0.79
2015-08-21T00:44:28.190Z,0.86
2015-08-21T00:44:39.862Z,0.81
2015-08-21T00:44:52.237Z,0.84
2015-08-21T00:45:04.596Z,0.81
2015-08-21T00:45:17.002Z,0.81
2015-08-21T00:45:29.364Z,0.89
2015-08-21T00:45:41.754Z,0.81
2015-08-21T00:45:54.129Z,0.86
2015-08-21T00:46:05.801Z,0.86
2015-08-21T00:46:18.176Z,0.85
2015-08-21T00:46:30.569Z,0.9
2015-08-21T00:46:42.959Z,0.9
2015-08-21T00:46:55.366Z,0.86
2015-08-21T00:47:07.788Z,0.86
2015-08-21T00:47:20.194Z,0.84
2015-08-21T00:47:32.586Z,0.81
2015-08-21T00:47:44.993Z,0.82
2015-08-21T00:47:57.383Z,0.82
2015-08-21T00:48:09.790Z,0.82
2015-08-21T00:48:22.196Z,0.81
2015-08-21T00:48:34.588Z,0.76
2015-08-21T00:48:46.995Z,0.85
2015-08-21T00:48:59.385Z,0.81
2015-08-21T00:49:11.792Z,0.79
2015-08-21T00:49:24.198Z,0.86
2015-08-21T00:49:36.575Z,0.86
2015-08-21T00:49:48.950Z,0.84
2015-08-21T00:50:01.325Z,0.76
2015-08-21T00:50:13.700Z,0.86
2015-08-21T00:50:26.075Z,0.84
2015-08-21T00:50:38.452Z,0.81
2015-08-21T00:50:50.827Z,0.82
2015-08-21T00:51:03.202Z,0.85
2015-08-21T00:51:15.577Z,0.9
2015-08-21T00:51:27.936Z,0.82
2015-08-21T00:51:40.312Z,0.81
2015-08-21T00:51:52.687Z,0.84
2015-08-21T00:52:05.062Z,0.86
2015-08-21T00:52:17.453Z,0.85
2015-08-21T00:52:29.843Z,0.82
2015-08-21T00:52:42.206Z,0.75
2015-08-21T00:52:54.581Z,0.85
2015-08-21T00:53:06.956Z,0.86
2015-08-21T00:53:19.331Z,0.85
2015-08-21T00:53:31.706Z,0.82
2015-08-21T00:53:44.067Z,0.82
2015-08-21T00:53:56.458Z,0.79
2015-08-21T00:54:08.833Z,0.82
2015-08-21T00:54:21.223Z,0.81
2015-08-21T00:54:33.583Z,0.85
2015-08-21T00:54:45.960Z,0.79
2015-08-21T00:54:58.335Z,0.85
2015-08-21T00:55:10.710Z,0.75
2015-08-21T00:55:23.100Z,0.85
2015-08-21T00:55:35.491Z,0.74
2015-08-21T00:55:47.884Z,0.79
2015-08-21T00:56:00.259Z,0.78
2015-08-21T00:56:12.649Z,0.79
2015-08-21T00:56:25.056Z,0.79
2015-08-21T00:56:37.446Z,0.84
2015-08-21T00:56:49.870Z,0.84
2015-08-21T00:57:02.308Z,0.75
2015-08-21T00:57:14.901Z,0.82
2015-08-21T00:57:27.464Z,0.84
2015-08-21T00:57:40.058Z,0.78
2015-08-21T00:57:57.606Z,0.76
2015-08-21T00:58:09.856Z,0.75
2015-08-21T00:58:22.278Z,0.75
2015-08-21T00:58:34.653Z,0.82
2015-08-21T00:58:47.075Z,0.82
2015-08-21T00:59:04.107Z,0.86
2015-08-21T00:59:18.498Z,0.75
2015-08-21T00:59:31.279Z,0.72
2015-08-21T00:59:44.123Z,0.78
2015-08-21T00:59:56.392Z,0.82
2015-08-21T01:00:08.767Z,0.71
2015-08-21T01:00:21.126Z,0.71
2015-08-21T01:00:33.501Z,0.74
2015-08-21T01:00:45.892Z,0.78
2015-08-21T01:00:58.253Z,0.74
2015-08-21T01:01:10.628Z,0.81
2015-08-21T01:01:23.394Z,0.76
2015-08-21T01:01:36.503Z,0.78
2015-08-21T01:01:50.003Z,0.76
2015-08-21T01:02:03.520Z,0.81
2015-08-21T01:02:18.692Z,0.81
2015-08-21T01:02:31.926Z,0.74
2015-08-21T01:02:44.598Z,0.74
2015-08-21T01:02:56.898Z,0.75
2015-08-21T01:03:09.304Z,0.79
2015-08-21T01:03:21.710Z,0.72
2015-08-21T01:03:33.991Z,0.67
2015-08-21T01:03:47.085Z,0.67
2015-08-21T01:03:59.525Z,0.75
2015-08-21T01:04:11.822Z,0.72
2015-08-21T01:04:23.915Z,0.75
2015-08-21T01:04:36.275Z,0.75
2015-08-21T01:04:48.556Z,0.71
2015-08-21T01:05:00.980Z,0.79
2015-08-21T01:05:15.652Z,0.81
2015-08-21T01:05:29.870Z,0.76
2015-08-21T01:05:42.745Z,0.76
2015-08-21T01:05:55.292Z,0.72
2015-08-21T01:06:07.513Z,0.71
2015-08-21T01:06:19.919Z,0.76
2015-08-21T01:06:31.482Z,0.71
2015-08-21T01:06:44.341Z,0.71
2015-08-21T01:06:56.747Z,0.71
2015-08-21T01:07:09.187Z,0.69
2015-08-21T01:07:21.609Z,0.72
2015-08-21T01:07:34.031Z,0.66
2015-08-21T01:07:46.421Z,0.67
2015-08-21T01:07:58.828Z,0.66
2015-08-21T01:08:11.580Z,0.69
2015-08-21T01:08:24.001Z,0.71
2015-08-21T01:08:36.408Z,0.75
2015-08-21T01:08:48.892Z,0.69
2015-08-21T01:09:01.642Z,0.74
2015-08-21T01:09:14.019Z,0.69
2015-08-21T01:09:26.394Z,0.66
2015-08-21T01:09:38.785Z,0.75
2015-08-21T01:09:51.160Z,0.71
2015-08-21T01:10:03.519Z,0.79
2015-08-21T01:10:15.754Z,0.67
2015-08-21T01:10:27.426Z,0.74
2015-08-21T01:10:39.801Z,0.69
2015-08-21T01:10:52.176Z,0.72
2015-08-21T01:11:04.442Z,0.69
2015-08-21T01:11:16.835Z,0.67
2015-08-21T01:11:29.210Z,0.74
2015-08-21T01:11:41.585Z,0.72
2015-08-21T01:11:53.960Z,0.71
2015-08-21T01:12:06.381Z,0.72
2015-08-21T01:12:18.758Z,0.74
2015-08-21T01:12:31.133Z,0.66
2015-08-21T01:12:43.524Z,0.72
2015-08-21T01:12:55.899Z,0.78
2015-08-21T01:13:08.274Z,0.71
2015-08-21T01:13:20.651Z,0.72
2015-08-21T01:13:33.151Z,0.69
2015-08-21T01:13:45.510Z,0.75
2015-08-21T01:13:57.885Z,0.71
2015-08-21T01:14:10.276Z,0.71
2015-08-21T01:14:22.653Z,0.66
2015-08-21T01:14:35.012Z,0.67
2015-08-21T01:14:47.403Z,0.67
2015-08-21T01:14:59.794Z,0.71
2015-08-21T01:15:12.169Z,0.72
2015-08-21T01:15:24.546Z,0.66
2015-08-21T01:15:36.921Z,0.66
2015-08-21T01:15:49.311Z,0.71
2015-08-21T01:16:01.546Z,0.64
2015-08-21T01:16:13.936Z,0.74
2015-08-21T01:16:26.407Z,0.67
2015-08-21T01:16:38.095Z,0.74
2015-08-21T01:16:50.532Z,0.71
2015-08-21T01:17:02.923Z,0.72
2015-08-21T01:17:15.329Z,0.74
2015-08-21T01:17:27.722Z,0.71
2015-08-21T01:17:40.190Z,0.69
2015-08-21T01:17:52.440Z,0.69
2015-08-21T01:18:04.862Z,0.67
2015-08-21T01:18:17.284Z,0.67
2015-08-21T01:18:29.661Z,0.63
2015-08-21T01:18:42.052Z,0.72
2015-08-21T01:18:54.411Z,0.74
2015-08-21T01:19:06.786Z,0.66
2015-08-21T01:19:19.161Z,0.74
2015-08-21T01:19:31.522Z,0.6
2015-08-21T01:19:43.913Z,0.66
2015-08-21T01:19:56.288Z,0.64
2015-08-21T01:20:08.679Z,0.69
2015-08-21T01:20:21.038Z,0.64
2015-08-21T01:20:33.415Z,0.66
2015-08-21T01:20:45.806Z,0.71
2015-08-21T01:20:58.181Z,0.63
2015-08-21T01:21:10.556Z,0.76
2015-08-21T01:21:22.931Z,0.74
2015-08-21T01:21:35.323Z,0.66
2015-08-21T01:21:47.698Z,0.69
2015-08-21T01:22:00.058Z,0.69
2015-08-21T01:22:12.433Z,0.69
2015-08-21T01:22:24.823Z,0.72
2015-08-21T01:22:37.186Z,0.67
2015-08-21T01:22:49.561Z,0.63
2015-08-21T01:23:01.983Z,0.71
2015-08-21T01:23:13.639Z,0.67
2015-08-21T01:23:26.014Z,0.61
2015-08-21T01:23:38.374Z,0.71
2015-08-21T01:23:50.749Z,0.63
2015-08-21T01:24:03.140Z,0.66
2015-08-21T01:24:15.515Z,0.57
2015-08-21T01:24:27.749Z,0.64
2015-08-21T01:24:40.126Z,0.63
2015-08-21T01:24:52.532Z,0.56
2015-08-21T01:25:04.751Z,0.64
2015-08-21T01:25:17.142Z,0.56
2015-08-21T01:25:29.532Z,0.61
2015-08-21T01:25:41.925Z,0.64
2015-08-21T01:25:54.316Z,0.53
2015-08-21T01:26:06.706Z,0.64
2015-08-21T01:26:18.941Z,0.61
2015-08-21T01:26:31.331Z,0.58
2015-08-21T01:26:43.724Z,0.58
2015-08-21T01:26:56.115Z,0.61
2015-08-21T01:27:08.427Z,0.56
2015-08-21T01:27:20.833Z,0.64
2015-08-21T01:27:33.224Z,0.64
2015-08-21T01:27:45.648Z,0.6
2015-08-21T01:27:58.023Z,0.63
2015-08-21T01:28:10.382Z,0.6
2015-08-21T01:28:22.742Z,0.61
2015-08-21T01:28:35.117Z,0.58
2015-08-21T01:28:47.494Z,0.61
2015-08-21T01:28:59.869Z,0.61
2015-08-21T01:29:12.228Z,0.63
2015-08-21T01:29:24.603Z,0.57
2015-08-21T01:29:36.994Z,0.66
2015-08-21T01:29:49.355Z,0.63
2015-08-21T01:30:01.730Z,0.58
2015-08-21T01:30:14.105Z,0.63
2015-08-21T01:30:26.480Z,0.6
2015-08-21T01:30:38.855Z,0.56
2015-08-21T01:30:51.216Z,0.58
2015-08-21T01:31:03.591Z,0.56
2015-08-21T01:31:15.966Z,0.61
2015-08-21T01:31:28.326Z,0.61
2015-08-21T01:31:40.716Z,0.58
2015-08-21T01:31:53.093Z,0.56
2015-08-21T01:32:05.453Z,0.53
2015-08-21T01:32:17.828Z,0.64
2015-08-21T01:32:30.234Z,0.61
2015-08-21T01:32:42.609Z,0.57
2015-08-21T01:32:54.970Z,0.52
2015-08-21T01:33:07.345Z,0.57
2015-08-21T01:33:19.720Z,0.57
2015-08-21T01:33:32.095Z,0.57
2015-08-21T01:33:44.455Z,0.53
2015-08-21T01:33:56.863Z,0.56
2015-08-21T01:34:09.238Z,0.56
2015-08-21T01:34:21.597Z,0.58
2015-08-21T01:34:33.988Z,0.53
2015-08-21T01:34:46.394Z,0.56
2015-08-21T01:34:58.787Z,0.58
2015-08-21T01:35:11.177Z,0.58
2015-08-21T01:35:22.881Z,0.52
2015-08-21T01:35:35.271Z,0.52
2015-08-21T01:35:47.677Z,0.53
2015-08-21T01:36:00.070Z,0.56
2015-08-21T01:36:12.461Z,0.56
2015-08-21T01:36:24.883Z,0.53
2015-08-21T01:36:37.304Z,0.5
2015-08-21T01:36:49.695Z,0.56
2015-08-21T01:37:02.088Z,0.57
2015-08-21T01:37:14.478Z,0.53
2015-08-21T01:37:26.900Z,0.53
2015-08-21T01:37:39.260Z,0.5
2015-08-21T01:37:51.635Z,0.53
2015-08-21T01:38:04.011Z,0.57
2015-08-21T01:38:16.370Z,0.53
2015-08-21T01:38:28.729Z,0.5
2015-08-21T01:38:41.089Z,0.5
2015-08-21T01:38:53.448Z,0.56
2015-08-21T01:39:05.826Z,0.42
2015-08-21T01:39:18.201Z,0.52
2015-08-21T01:39:30.576Z,0.5
2015-08-21T01:39:42.951Z,0.5
2015-08-21T01:39:55.310Z,0.52
2015-08-21T01:40:07.703Z,0.53
2015-08-21T01:40:19.359Z,0.5
2015-08-21T01:40:31.734Z,0.52
2015-08-21T01:40:44.109Z,0.42
2015-08-21T01:40:56.469Z,0.5
2015-08-21T01:41:08.846Z,0.56
2015-08-21T01:41:21.205Z,0.47
2015-08-21T01:41:33.564Z,0.52
2015-08-21T01:41:45.955Z,0.5
2015-08-21T01:41:58.330Z,0.44
2015-08-21T01:42:10.707Z,0.44
2015-08-21T01:42:22.926Z,0.44
2015-08-21T01:42:35.301Z,0.48
2015-08-21T01:42:47.660Z,0.41
2015-08-21T01:43:00.051Z,0.57
2015-08-21T01:43:12.412Z,0.53
2015-08-21T01:43:24.662Z,0.45
2015-08-21T01:43:36.881Z,0.5
2015-08-21T01:43:49.256Z,0.5
2015-08-21T01:44:01.631Z,0.53
2015-08-21T01:44:14.008Z,0.5
2015-08-21T01:44:26.383Z,0.48
2015-08-21T01:44:38.774Z,0.48
2015-08-21T01:44:51.195Z,0.47
2015-08-21T01:45:03.602Z,0.44
2015-08-21T01:45:16.010Z,0.53
2015-08-21T01:45:28.416Z,0.58
2015-08-21T01:45:40.807Z,0.41
2015-08-21T01:45:53.197Z,0.56
2015-08-21T01:46:05.604Z,0.41
2015-08-21T01:46:18.027Z,0.42
2015-08-21T01:46:30.433Z,0.41
2015-08-21T01:46:42.839Z,0.41
2015-08-21T01:46:55.245Z,0.41
2015-08-21T01:47:07.620Z,0.47
2015-08-21T01:47:19.998Z,0.42
2015-08-21T01:47:32.373Z,0.44
2015-08-21T01:47:44.748Z,0.45
2015-08-21T01:47:57.123Z,0.42
2015-08-21T01:48:09.483Z,0.45
2015-08-21T01:48:21.875Z,0.48
2015-08-21T01:48:34.250Z,0.35
2015-08-21T01:48:46.625Z,0.41
2015-08-21T01:48:58.297Z,0.42
2015-08-21T01:49:10.688Z,0.38
2015-08-21T01:49:23.064Z,0.39
2015-08-21T01:49:35.439Z,0.34
2015-08-21T01:49:47.814Z,0.32
2015-08-21T01:50:00.189Z,0.38
2015-08-21T01:50:12.564Z,0.38
2015-08-21T01:50:24.941Z,0.35
2015-08-21T01:50:37.316Z,0.32
2015-08-21T01:50:49.706Z,0.39
2015-08-21T01:51:02.081Z,0.39
2015-08-21T01:51:14.456Z,0.39
2015-08-21T01:51:26.099Z,0.39
2015-08-21T01:51:38.505Z,0.31
2015-08-21T01:51:50.880Z,0.41
2015-08-21T01:52:03.240Z,0.37
2015-08-21T01:52:15.630Z,0.34
2015-08-21T01:52:27.993Z,0.39
2015-08-21T01:52:40.368Z,0.39
2015-08-21T01:52:52.758Z,0.27
2015-08-21T01:53:05.149Z,0.31
2015-08-21T01:53:17.524Z,0.27
2015-08-21T01:53:29.916Z,0.26
2015-08-21T01:53:42.166Z,0.31
2015-08-21T01:53:54.541Z,0.24
2015-08-21T01:54:06.947Z,0.31
2015-08-21T01:54:19.337Z,0.37
2015-08-21T01:54:31.747Z,0.27
2015-08-21T01:54:44.153Z,0.28
2015-08-21T01:54:56.544Z,0.34
2015-08-21T01:55:08.950Z,0.34
2015-08-21T01:55:21.356Z,0.28
2015-08-21T01:55:33.763Z,0.31
2015-08-21T01:55:46.201Z,0.27
2015-08-21T01:55:58.591Z,0.35
2015-08-21T01:56:10.982Z,0.35
2015-08-21T01:56:23.388Z,0.27
2015-08-21T01:56:35.797Z,0.24
2015-08-21T01:56:48.156Z,0.32
2015-08-21T01:57:00.547Z,0.31
2015-08-21T01:57:12.922Z,0.24
2015-08-21T01:57:25.281Z,0.24
2015-08-21T01:57:37.658Z,0.26
2015-08-21T01:57:50.033Z,0.26
2015-08-21T01:58:02.252Z,0.31
2015-08-21T01:58:14.642Z,0.27
2015-08-21T01:58:26.908Z,0.24
2015-08-21T01:58:39.130Z,0.28
2015-08-21T01:58:51.520Z,0.34
2015-08-21T01:59:03.887Z,0.32
2015-08-21T01:59:16.105Z,0.27
2015-08-21T01:59:28.480Z,0.23
2015-08-21T01:59:40.872Z,0.31
2015-08-21T01:59:53.247Z,0.28
2015-08-21T02:00:05.638Z,0.34
2015-08-21T02:00:18.013Z,0.27
2015-08-21T02:00:30.388Z,0.38
2015-08-21T02:00:42.765Z,0.27
2015-08-21T02:00:55.124Z,0.28
2015-08-21T02:01:07.515Z,0.32
2015-08-21T02:01:19.905Z,0.28
2015-08-21T02:01:31.561Z,0.26
2015-08-21T02:01:43.923Z,0.34
2015-08-21T02:01:56.298Z,0.32
2015-08-21T02:02:08.688Z,0.24
2015-08-21T02:02:20.892Z,0.34
2015-08-21T02:02:33.282Z,0.27
2015-08-21T02:02:45.675Z,0.31
2015-08-21T02:02:58.050Z,0.16
2015-08-21T02:03:10.425Z,0.26
2015-08-21T02:03:22.831Z,0.32
2015-08-21T02:03:35.222Z,0.26
2015-08-21T02:03:47.631Z,0.27
2015-08-21T02:04:00.037Z,0.24
2015-08-21T02:04:12.428Z,0.2
2015-08-21T02:04:24.834Z,0.27
2015-08-21T02:04:37.225Z,0.23
2015-08-21T02:04:49.617Z,0.28
2015-08-21T02:05:02.008Z,0.27
2015-08-21T02:05:14.430Z,0.27
2015-08-21T02:05:26.867Z,0.24
2015-08-21T02:05:39.258Z,0.24
2015-08-21T02:05:51.665Z,0.2
2015-08-21T02:06:04.087Z,0.23
2015-08-21T02:06:16.462Z,0.19
2015-08-21T02:06:28.681Z,0.24
2015-08-21T02:06:41.040Z,0.17
2015-08-21T02:06:53.402Z,0.2
2015-08-21T02:07:05.761Z,0.27
2015-08-21T02:07:18.120Z,0.23
2015-08-21T02:07:30.527Z,0.23
2015-08-21T02:07:42.902Z,0.23
2015-08-21T02:07:55.279Z,0.2
2015-08-21T02:08:07.669Z,0.24
2015-08-21T02:08:20.029Z,0.21
2015-08-21T02:08:32.404Z,0.23
2015-08-21T02:08:44.779Z,0.2
2015-08-21T02:08:57.140Z,0.2
2015-08-21T02:09:09.531Z,0.2
2015-08-21T02:09:21.890Z,0.2
2015-08-21T02:09:34.265Z,0.19
2015-08-21T02:09:46.656Z,0.17
2015-08-21T02:09:59.017Z,0.17
2015-08-21T02:10:11.392Z,0.2
2015-08-21T02:10:23.767Z,0.19
2015-08-21T02:10:36.126Z,0.14
2015-08-21T02:10:48.501Z,0.21
2015-08-21T02:11:00.878Z,0.2
2015-08-21T02:11:13.238Z,0.09
2015-08-21T02:11:25.613Z,0.16
2015-08-21T02:11:37.988Z,0.23
2015-08-21T02:11:50.363Z,0.06
2015-08-21T02:12:02.740Z,0.13
2015-08-21T02:12:15.146Z,0.21
2015-08-21T02:12:27.521Z,0.09
2015-08-21T02:12:39.896Z,0.08
2015-08-21T02:12:52.302Z,0.06
2015-08-21T02:13:04.679Z,0.08
2015-08-21T02:13:16.929Z,0.21
2015-08-21T02:13:29.320Z,0.09
2015-08-21T02:13:41.742Z,0.1
2015-08-21T02:13:54.132Z,0.06
2015-08-21T02:14:06.400Z,0.05
2015-08-21T02:14:18.806Z,0.08
2015-08-21T02:14:31.056Z,0.16
2015-08-21T02:14:43.447Z,0.1
2015-08-21T02:14:55.150Z,0.08
2015-08-21T02:15:07.558Z,0.1
2015-08-21T02:15:19.980Z,0.09
2015-08-21T02:15:32.371Z,0.05
2015-08-21T02:15:44.808Z,0.14
2015-08-21T02:15:57.230Z,0.08
2015-08-21T02:16:09.607Z,0.08
2015-08-21T02:16:21.982Z,0.16
2015-08-21T02:16:34.357Z,0.08
2015-08-21T02:16:46.748Z,0.08
2015-08-21T02:16:59.123Z,0.24
2015-08-21T02:17:11.500Z,0.06
2015-08-21T02:17:23.890Z,0.13
2015-08-21T02:17:36.265Z,0.08
2015-08-21T02:17:48.640Z,0.21
2015-08-21T02:18:01.015Z,0.09
2015-08-21T02:18:13.392Z,0.17
2015-08-21T02:18:25.767Z,0.17
2015-08-21T02:18:38.142Z,0.14
2015-08-21T02:18:50.517Z,0.1
2015-08-21T02:19:02.908Z,0.2
2015-08-21T02:19:15.285Z,0.05
2015-08-21T02:19:27.660Z,0.08
2015-08-21T02:19:39.316Z,0.19
2015-08-21T02:19:50.972Z,0.1
2015-08-21T02:20:03.347Z,0.2
2015-08-21T02:20:15.708Z,0.17
2015-08-21T02:20:28.098Z,0.2
2015-08-21T02:20:40.520Z,0.08
2015-08-21T02:20:52.911Z,0.16
2015-08-21T02:21:05.286Z,0.09
2015-08-21T02:21:17.648Z,0.16
2015-08-21T02:21:30.023Z,0.19
2015-08-21T02:21:42.398Z,0.21
2015-08-21T02:21:54.805Z,0.23
2015-08-21T02:22:07.180Z,0.23
2015-08-21T02:22:19.572Z,0.17
2015-08-21T02:22:31.963Z,0.21
2015-08-21T02:22:44.338Z,0.26
2015-08-21T02:22:56.728Z,0.24
2015-08-21T02:23:09.135Z,0.23
2015-08-21T02:23:21.559Z,0.17
2015-08-21T02:23:33.246Z,0.21
2015-08-21T02:23:45.652Z,0.24
2015-08-21T02:23:58.059Z,0.26
2015-08-21T02:24:10.449Z,0.28
2015-08-21T02:24:22.842Z,0.24
2015-08-21T02:24:35.279Z,0.24
2015-08-21T02:24:47.686Z,0.28
2015-08-21T02:25:00.076Z,0.2
2015-08-21T02:25:12.482Z,0.21
2015-08-21T02:25:24.719Z,0.21
2015-08-21T02:25:37.078Z,0.28
2015-08-21T02:25:49.453Z,0.21
2015-08-21T02:26:01.828Z,0.27
2015-08-21T02:26:14.188Z,0.31
2015-08-21T02:26:25.846Z,0.27
2015-08-21T02:26:38.221Z,0.27
2015-08-21T02:26:50.611Z,0.24
2015-08-21T02:27:02.986Z,0.32
2015-08-21T02:27:15.361Z,0.21
2015-08-21T02:27:27.738Z,0.26
2015-08-21T02:27:40.113Z,0.37
2015-08-21T02:27:52.488Z,0.28
2015-08-21T02:28:04.723Z,0.23
2015-08-21T02:28:17.098Z,0.37
2015-08-21T02:28:29.319Z,0.27
2015-08-21T02:28:41.694Z,0.31
2015-08-21T02:28:54.069Z,0.23
2015-08-21T02:29:06.428Z,0.32
2015-08-21T02:29:18.803Z,0.34
2015-08-21T02:29:31.196Z,0.31
2015-08-21T02:29:43.571Z,0.24
2015-08-21T02:29:55.961Z,0.26
2015-08-21T02:30:08.336Z,0.28
2015-08-21T02:30:20.727Z,0.24
2015-08-21T02:30:33.103Z,0.21
2015-08-21T02:30:45.478Z,0.32
2015-08-21T02:30:57.853Z,0.34
2015-08-21T02:31:10.228Z,0.24
2015-08-21T02:31:22.618Z,0.27
2015-08-21T02:31:35.011Z,0.28
2015-08-21T02:31:46.683Z,0.26
2015-08-21T02:31:58.902Z,0.27
2015-08-21T02:32:11.292Z,0.31
2015-08-21T02:32:23.699Z,0.27
2015-08-21T02:32:36.091Z,0.27
2015-08-21T02:32:48.497Z,0.31
2015-08-21T02:33:00.201Z,0.24
2015-08-21T02:33:12.607Z,0.31
2015-08-21T02:33:25.013Z,0.28
2015-08-21T02:33:37.406Z,0.26
2015-08-21T02:33:49.812Z,0.24
2015-08-21T02:34:02.249Z,0.32
2015-08-21T02:34:14.640Z,0.32
2015-08-21T02:34:27.046Z,0.28
2015-08-21T02:34:39.455Z,0.26
2015-08-21T02:34:51.861Z,0.34
2015-08-21T02:35:04.236Z,0.32
2015-08-21T02:35:16.611Z,0.31
2015-08-21T02:35:28.970Z,0.28
2015-08-21T02:35:41.363Z,0.28
2015-08-21T02:35:53.738Z,0.28
2015-08-21T02:36:06.113Z,0.32
2015-08-21T02:36:18.488Z,0.27
2015-08-21T02:36:30.863Z,0.34
2015-08-21T02:36:43.240Z,0.34
2015-08-21T02:36:55.615Z,0.31
2015-08-21T02:37:07.271Z,0.26
2015-08-21T02:37:19.646Z,0.32
2015-08-21T02:37:32.021Z,0.28
2015-08-21T02:37:43.711Z,0.34
2015-08-21T02:37:56.101Z,0.31
2015-08-21T02:38:08.461Z,0.26
2015-08-21T02:38:20.867Z,0.38
2015-08-21T02:38:33.242Z,0.28
2015-08-21T02:38:45.603Z,0.34
2015-08-21T02:38:57.978Z,0.37
2015-08-21T02:39:10.369Z,0.37
2015-08-21T02:39:22.744Z,0.35
2015-08-21T02:39:35.134Z,0.24
2015-08-21T02:39:47.496Z,0.38
2015-08-21T02:39:59.871Z,0.41
2015-08-21T02:40:12.105Z,0.38
2015-08-21T02:40:24.465Z,0.27
2015-08-21T02:40:36.840Z,0.32
2015-08-21T02:40:49.232Z,0.31
2015-08-21T02:41:01.607Z,0.28
2015-08-21T02:41:13.998Z,0.32
2015-08-21T02:41:26.388Z,0.32
2015-08-21T02:41:38.763Z,0.34
2015-08-21T02:41:51.156Z,0.35
2015-08-21T02:42:03.562Z,0.39
2015-08-21T02:42:15.984Z,0.35
2015-08-21T02:42:28.375Z,0.34
2015-08-21T02:42:40.781Z,0.34
2015-08-21T02:42:53.189Z,0.35
2015-08-21T02:43:05.596Z,0.38
2015-08-21T02:43:18.002Z,0.37
2015-08-21T02:43:30.424Z,0.28
2015-08-21T02:43:42.830Z,0.31
2015-08-21T02:43:55.238Z,0.39
2015-08-21T02:44:07.644Z,0.39
2015-08-21T02:44:20.035Z,0.35
2015-08-21T02:44:32.394Z,0.37
2015-08-21T02:44:44.769Z,0.35
2015-08-21T02:44:57.162Z,0.39